sensor_id;sensor_type;location;lat;lon;timestamp;pressure;altitude;pressure_sealevel;temperature;humidity
3668;BME280;24099;47.102;15.440;2023-03-01T00:01:55;97954.06;;;-0.06;100.00
3668;BME280;24099;47.102;15.440;2023-03-01T00:04:24;97953.09;;;0.10;100.00
3668;BME280;24099;47.102;15.440;2023-03-01T00:06:53;97954.81;;;-0.18;100.00
3668;BME280;24099;47.102;15.440;2023-03-01T00:09:21;97951.78;;;-0.10;100.00
3668;BME280;24099;47.102;15.440;2023-03-01T00:11:49;97938.41;;;0.10;100.00
3668;BME280;24099;47.102;15.440;2023-03-01T00:14:34;97942.16;;;0.19;100.00
3668;BME280;24099;47.102;15.440;2023-03-01T00:17:07;97939.78;;;0.28;100.00
3668;BME280;24099;47.102;15.440;2023-03-01T00:19:35;97943.50;;;0.24;100.00
3668;BME280;24099;47.102;15.440;2023-03-01T00:22:03;97942.38;;;0.28;100.00
3668;BME280;24099;47.102;15.440;2023-03-01T00:24:30;97941.25;;;0.32;100.00
3668;BME280;24099;47.102;15.440;2023-03-01T00:26:59;97926.38;;;0.09;100.00
3668;BME280;24099;47.102;15.440;2023-03-01T00:29:27;97947.22;;;0.20;100.00
3668;BME280;24099;47.102;15.440;2023-03-01T00:31:55;97941.56;;;0.28;100.00
3668;BME280;24099;47.102;15.440;2023-03-01T00:34:24;97936.91;;;0.33;100.00
3668;BME280;24099;47.102;15.440;2023-03-01T00:36:52;97938.22;;;0.26;100.00
3668;BME280;24099;47.102;15.440;2023-03-01T00:39:22;97932.66;;;0.19;100.00
3668;BME280;24099;47.102;15.440;2023-03-01T00:41:50;97938.34;;;0.24;100.00
3668;BME280;24099;47.102;15.440;2023-03-01T00:44:21;97936.88;;;0.20;100.00
3668;BME280;24099;47.102;15.440;2023-03-01T00:46:50;97921.47;;;0.19;100.00
3668;BME280;24099;47.102;15.440;2023-03-01T00:49:17;97922.81;;;0.24;100.00
3668;BME280;24099;47.102;15.440;2023-03-01T00:51:46;97923.44;;;0.28;100.00
3668;BME280;24099;47.102;15.440;2023-03-01T00:54:14;97927.16;;;0.24;100.00
3668;BME280;24099;47.102;15.440;2023-03-01T00:56:44;97931.31;;;0.26;100.00
3668;BME280;24099;47.102;15.440;2023-03-01T00:59:12;97923.00;;;0.21;100.00
3668;BME280;24099;47.102;15.440;2023-03-01T01:01:46;97922.50;;;0.16;100.00
3668;BME280;24099;47.102;15.440;2023-03-01T01:04:20;97915.56;;;0.29;100.00
3668;BME280;24099;47.102;15.440;2023-03-01T01:06:50;97916.75;;;0.38;100.00
3668;BME280;24099;47.102;15.440;2023-03-01T01:09:18;97909.56;;;0.29;100.00
3668;BME280;24099;47.102;15.440;2023-03-01T01:11:47;97910.06;;;0.21;100.00
3668;BME280;24099;47.102;15.440;2023-03-01T01:14:18;97916.78;;;0.24;100.00
3668;BME280;24099;47.102;15.440;2023-03-01T01:16:46;97914.00;;;0.27;100.00
3668;BME280;24099;47.102;15.440;2023-03-01T01:19:14;97910.59;;;0.26;100.00
3668;BME280;24099;47.102;15.440;2023-03-01T01:21:43;97912.06;;;0.30;100.00
3668;BME280;24099;47.102;15.440;2023-03-01T01:24:12;97902.88;;;0.52;100.00
3668;BME280;24099;47.102;15.440;2023-03-01T01:26:40;97903.72;;;0.52;100.00
3668;BME280;24099;47.102;15.440;2023-03-01T01:29:09;97904.41;;;0.42;100.00
3668;BME280;24099;47.102;15.440;2023-03-01T01:31:38;97898.63;;;0.38;100.00
3668;BME280;24099;47.102;15.440;2023-03-01T01:34:10;97898.00;;;0.47;100.00
3668;BME280;24099;47.102;15.440;2023-03-01T01:36:40;97891.59;;;0.53;100.00
3668;BME280;24099;47.102;15.440;2023-03-01T01:39:08;97897.41;;;0.56;100.00
3668;BME280;24099;47.102;15.440;2023-03-01T01:41:41;97893.88;;;0.57;100.00
3668;BME280;24099;47.102;15.440;2023-03-01T01:44:20;97881.72;;;0.45;100.00
3668;BME280;24099;47.102;15.440;2023-03-01T01:46:54;97877.91;;;0.51;100.00
3668;BME280;24099;47.102;15.440;2023-03-01T01:49:27;97876.47;;;0.47;100.00
3668;BME280;24099;47.102;15.440;2023-03-01T01:52:04;97870.44;;;0.46;100.00
3668;BME280;24099;47.102;15.440;2023-03-01T01:54:38;97874.59;;;0.49;100.00
3668;BME280;24099;47.102;15.440;2023-03-01T01:57:30;97878.94;;;0.48;100.00
3668;BME280;24099;47.102;15.440;2023-03-01T02:00:03;97872.09;;;0.47;100.00
3668;BME280;24099;47.102;15.440;2023-03-01T02:02:41;97876.88;;;0.53;100.00
3668;BME280;24099;47.102;15.440;2023-03-01T02:05:14;97877.28;;;0.47;100.00
3668;BME280;24099;47.102;15.440;2023-03-01T02:07:43;97872.53;;;0.54;100.00
3668;BME280;24099;47.102;15.440;2023-03-01T02:10:20;97874.59;;;0.49;100.00
3668;BME280;24099;47.102;15.440;2023-03-01T02:12:50;97866.44;;;0.55;100.00
3668;BME280;24099;47.102;15.440;2023-03-01T02:15:21;97867.25;;;0.55;100.00
3668;BME280;24099;47.102;15.440;2023-03-01T02:17:53;97852.94;;;0.62;100.00
3668;BME280;24099;47.102;15.440;2023-03-01T02:20:26;97853.59;;;0.53;100.00
3668;BME280;24099;47.102;15.440;2023-03-01T02:22:55;97855.78;;;0.59;100.00
3668;BME280;24099;47.102;15.440;2023-03-01T02:25:44;97854.59;;;0.63;100.00
3668;BME280;24099;47.102;15.440;2023-03-01T02:28:30;97840.81;;;0.63;100.00
3668;BME280;24099;47.102;15.440;2023-03-01T02:30:59;97846.63;;;0.54;100.00
3668;BME280;24099;47.102;15.440;2023-03-01T02:33:46;97843.84;;;0.69;100.00
3668;BME280;24099;47.102;15.440;2023-03-01T02:36:17;97846.00;;;0.63;100.00
3668;BME280;24099;47.102;15.440;2023-03-01T02:38:48;97845.19;;;0.62;100.00
3668;BME280;24099;47.102;15.440;2023-03-01T02:41:22;97838.03;;;0.66;100.00
3668;BME280;24099;47.102;15.440;2023-03-01T02:43:56;97835.44;;;0.66;100.00
3668;BME280;24099;47.102;15.440;2023-03-01T02:46:26;97842.06;;;0.70;100.00
3668;BME280;24099;47.102;15.440;2023-03-01T02:48:55;97844.56;;;0.72;100.00
3668;BME280;24099;47.102;15.440;2023-03-01T02:51:34;97843.50;;;0.61;100.00
3668;BME280;24099;47.102;15.440;2023-03-01T02:54:13;97838.13;;;0.64;100.00
3668;BME280;24099;47.102;15.440;2023-03-01T02:56:45;97834.41;;;0.68;100.00
3668;BME280;24099;47.102;15.440;2023-03-01T02:59:21;97837.00;;;0.68;100.00
3668;BME280;24099;47.102;15.440;2023-03-01T03:01:50;97837.41;;;0.62;100.00
3668;BME280;24099;47.102;15.440;2023-03-01T03:04:21;97835.53;;;0.64;100.00
3668;BME280;24099;47.102;15.440;2023-03-01T03:06:51;97829.97;;;0.71;100.00
3668;BME280;24099;47.102;15.440;2023-03-01T03:09:19;97833.78;;;0.65;100.00
3668;BME280;24099;47.102;15.440;2023-03-01T03:11:47;97836.16;;;0.68;100.00
3668;BME280;24099;47.102;15.440;2023-03-01T03:14:17;97836.69;;;0.60;100.00
3668;BME280;24099;47.102;15.440;2023-03-01T03:16:49;97834.22;;;0.72;100.00
3668;BME280;24099;47.102;15.440;2023-03-01T03:19:18;97829.84;;;0.72;100.00
3668;BME280;24099;47.102;15.440;2023-03-01T03:21:48;97838.88;;;0.66;100.00
3668;BME280;24099;47.102;15.440;2023-03-01T03:24:21;97828.41;;;0.68;100.00
3668;BME280;24099;47.102;15.440;2023-03-01T03:26:49;97831.91;;;0.67;100.00
3668;BME280;24099;47.102;15.440;2023-03-01T03:29:18;97833.38;;;0.71;100.00
3668;BME280;24099;47.102;15.440;2023-03-01T03:32:00;97830.25;;;0.66;100.00
3668;BME280;24099;47.102;15.440;2023-03-01T03:34:29;97836.06;;;0.69;100.00
3668;BME280;24099;47.102;15.440;2023-03-01T03:36:57;97842.19;;;0.68;100.00
3668;BME280;24099;47.102;15.440;2023-03-01T03:39:26;97838.78;;;0.55;100.00
3668;BME280;24099;47.102;15.440;2023-03-01T03:41:54;97829.16;;;0.57;100.00
3668;BME280;24099;47.102;15.440;2023-03-01T03:44:23;97827.56;;;0.67;100.00
3668;BME280;24099;47.102;15.440;2023-03-01T03:46:51;97837.00;;;0.68;100.00
3668;BME280;24099;47.102;15.440;2023-03-01T03:49:19;97836.06;;;0.69;100.00
3668;BME280;24099;47.102;15.440;2023-03-01T03:51:49;97842.72;;;0.74;100.00
3668;BME280;24099;47.102;15.440;2023-03-01T03:54:17;97841.97;;;0.72;100.00
3668;BME280;24099;47.102;15.440;2023-03-01T03:56:44;97841.56;;;0.65;100.00
3668;BME280;24099;47.102;15.440;2023-03-01T03:59:12;97850.06;;;0.67;100.00
3668;BME280;24099;47.102;15.440;2023-03-01T04:01:41;97845.63;;;0.56;100.00
3668;BME280;24099;47.102;15.440;2023-03-01T04:04:11;97848.28;;;0.67;100.00
3668;BME280;24099;47.102;15.440;2023-03-01T04:06:39;97847.25;;;0.70;100.00
3668;BME280;24099;47.102;15.440;2023-03-01T04:09:07;97848.69;;;0.61;100.00
3668;BME280;24099;47.102;15.440;2023-03-01T04:11:35;97841.56;;;0.65;100.00
3668;BME280;24099;47.102;15.440;2023-03-01T04:14:06;97843.50;;;0.61;100.00
3668;BME280;24099;47.102;15.440;2023-03-01T04:16:34;97834.09;;;0.60;100.00
3668;BME280;24099;47.102;15.440;2023-03-01T04:19:13;97828.50;;;0.66;100.00
3668;BME280;24099;47.102;15.440;2023-03-01T04:21:44;97833.88;;;0.63;100.00
3668;BME280;24099;47.102;15.440;2023-03-01T04:24:12;97845.63;;;0.56;100.00
3668;BME280;24099;47.102;15.440;2023-03-01T04:26:40;97843.03;;;0.56;100.00
3668;BME280;24099;47.102;15.440;2023-03-01T04:29:08;97838.44;;;0.47;100.00
3668;BME280;24099;47.102;15.440;2023-03-01T04:31:36;97854.09;;;0.46;100.00
3668;BME280;24099;47.102;15.440;2023-03-01T04:34:03;97849.63;;;0.60;100.00
3668;BME280;24099;47.102;15.440;2023-03-01T04:36:33;97851.41;;;0.60;100.00
3668;BME280;24099;47.102;15.440;2023-03-01T04:39:10;97856.16;;;0.53;100.00
3668;BME280;24099;47.102;15.440;2023-03-01T04:41:42;97857.69;;;0.43;100.00
3668;BME280;24099;47.102;15.440;2023-03-01T04:44:10;97855.75;;;0.47;100.00
3668;BME280;24099;47.102;15.440;2023-03-01T04:46:39;97855.31;;;0.40;100.00
3668;BME280;24099;47.102;15.440;2023-03-01T04:49:06;97848.50;;;0.39;100.00
3668;BME280;24099;47.102;15.440;2023-03-01T04:51:36;97845.09;;;0.51;100.00
3668;BME280;24099;47.102;15.440;2023-03-01T04:54:04;97844.88;;;0.54;100.00
3668;BME280;24099;47.102;15.440;2023-03-01T04:56:34;97844.16;;;0.52;100.00
3668;BME280;24099;47.102;15.440;2023-03-01T04:59:02;97840.94;;;0.49;100.00
3668;BME280;24099;47.102;15.440;2023-03-01T05:01:32;97833.16;;;0.49;100.00
3668;BME280;24099;47.102;15.440;2023-03-01T05:04:02;97831.50;;;0.48;100.00
3668;BME280;24099;47.102;15.440;2023-03-01T05:06:31;97830.69;;;0.47;100.00
3668;BME280;24099;47.102;15.440;2023-03-01T05:09:02;97824.06;;;0.56;100.00
3668;BME280;24099;47.102;15.440;2023-03-01T05:11:31;97837.75;;;0.58;100.00
3668;BME280;24099;47.102;15.440;2023-03-01T05:14:07;97834.00;;;0.49;100.00
3668;BME280;24099;47.102;15.440;2023-03-01T05:16:36;97826.31;;;0.48;100.00
3668;BME280;24099;47.102;15.440;2023-03-01T05:19:06;97829.72;;;0.61;100.00
3668;BME280;24099;47.102;15.440;2023-03-01T05:21:42;97827.28;;;0.59;100.00
3668;BME280;24099;47.102;15.440;2023-03-01T05:24:26;97821.75;;;0.64;100.00
3668;BME280;24099;47.102;15.440;2023-03-01T05:26:56;97827.97;;;0.61;100.00
3668;BME280;24099;47.102;15.440;2023-03-01T05:29:25;97821.88;;;0.62;100.00
3668;BME280;24099;47.102;15.440;2023-03-01T05:31:53;97819.91;;;0.79;100.00
3668;BME280;24099;47.102;15.440;2023-03-01T05:34:29;97824.88;;;0.69;100.00
3668;BME280;24099;47.102;15.440;2023-03-01T05:36:58;97831.09;;;0.66;100.00
3668;BME280;24099;47.102;15.440;2023-03-01T05:39:30;97837.00;;;0.68;100.00
3668;BME280;24099;47.102;15.440;2023-03-01T05:42:00;97837.00;;;0.68;100.00
3668;BME280;24099;47.102;15.440;2023-03-01T05:44:29;97842.06;;;0.70;100.00
3668;BME280;24099;47.102;15.440;2023-03-01T05:46:57;97842.06;;;0.70;100.00
3668;BME280;24099;47.102;15.440;2023-03-01T05:49:31;97845.28;;;0.74;100.00
3668;BME280;24099;47.102;15.440;2023-03-01T05:51:59;97849.94;;;0.68;100.00
3668;BME280;24099;47.102;15.440;2023-03-01T05:54:28;97839.50;;;0.70;100.00
3668;BME280;24099;47.102;15.440;2023-03-01T05:56:58;97847.06;;;0.73;100.00
3668;BME280;24099;47.102;15.440;2023-03-01T05:59:42;97845.50;;;0.71;100.00
3668;BME280;24099;47.102;15.440;2023-03-01T06:02:14;97848.28;;;0.67;100.00
3668;BME280;24099;47.102;15.440;2023-03-01T06:04:44;97849.53;;;0.62;100.00
3668;BME280;24099;47.102;15.440;2023-03-01T06:07:11;97851.41;;;0.60;100.00
3668;BME280;24099;47.102;15.440;2023-03-01T06:09:41;97856.38;;;0.63;100.00
3668;BME280;24099;47.102;15.440;2023-03-01T06:12:12;97867.56;;;0.63;100.00
3668;BME280;24099;47.102;15.440;2023-03-01T06:14:39;97863.75;;;0.56;100.00
3668;BME280;24099;47.102;15.440;2023-03-01T06:17:07;97861.16;;;0.56;100.00
3668;BME280;24099;47.102;15.440;2023-03-01T06:19:36;97862.56;;;0.60;100.00
3668;BME280;24099;47.102;15.440;2023-03-01T06:22:03;97853.56;;;0.66;100.00
3668;BME280;24099;47.102;15.440;2023-03-01T06:24:31;97853.16;;;0.72;100.00
3668;BME280;24099;47.102;15.440;2023-03-01T06:27:04;97856.78;;;0.82;100.00
3668;BME280;24099;47.102;15.440;2023-03-01T06:29:47;97861.84;;;0.84;100.00
3668;BME280;24099;47.102;15.440;2023-03-01T06:32:16;97853.16;;;0.85;100.00
3668;BME280;24099;47.102;15.440;2023-03-01T06:34:44;97854.72;;;0.87;100.00
3668;BME280;24099;47.102;15.440;2023-03-01T06:37:15;97860.72;;;0.88;100.00
3668;BME280;24099;47.102;15.440;2023-03-01T06:39:45;97864.03;;;0.90;100.00
3668;BME280;24099;47.102;15.440;2023-03-01T06:42:16;97870.69;;;0.94;100.00
3668;BME280;24099;47.102;15.440;2023-03-01T06:44:45;97866.22;;;0.96;100.00
3668;BME280;24099;47.102;15.440;2023-03-01T06:47:14;97863.72;;;0.94;100.00
3668;BME280;24099;47.102;15.440;2023-03-01T06:49:43;97861.66;;;0.87;100.00
3668;BME280;24099;47.102;15.440;2023-03-01T06:52:11;97874.19;;;0.93;100.00
3668;BME280;24099;47.102;15.440;2023-03-01T06:54:38;97878.34;;;0.95;100.00
3668;BME280;24099;47.102;15.440;2023-03-01T06:57:17;97876.16;;;1.02;100.00
3668;BME280;24099;47.102;15.440;2023-03-01T06:59:48;97871.47;;;1.07;100.00
3668;BME280;24099;47.102;15.440;2023-03-01T07:02:16;97870.34;;;1.11;100.00
3668;BME280;24099;47.102;15.440;2023-03-01T07:04:48;97871.78;;;1.15;100.00
3668;BME280;24099;47.102;15.440;2023-03-01T07:07:20;97878.63;;;1.16;100.00
3668;BME280;24099;47.102;15.440;2023-03-01T07:09:49;97878.53;;;1.18;100.00
3668;BME280;24099;47.102;15.440;2023-03-01T07:12:34;97887.13;;;1.18;100.00
3668;BME280;24099;47.102;15.440;2023-03-01T07:15:10;97878.09;;;1.24;100.00
3668;BME280;24099;47.102;15.440;2023-03-01T07:17:38;97877.03;;;1.26;100.00
3668;BME280;24099;47.102;15.440;2023-03-01T07:20:07;97879.44;;;1.29;100.00
3668;BME280;24099;47.102;15.440;2023-03-01T07:22:35;97876.63;;;1.32;100.00
3668;BME280;24099;47.102;15.440;2023-03-01T07:25:06;97875.47;;;1.36;100.00
3668;BME280;24099;47.102;15.440;2023-03-01T07:27:36;97881.41;;;1.38;100.00
3668;BME280;24099;47.102;15.440;2023-03-01T07:30:53;97893.19;;;1.43;100.00
3668;BME280;24099;47.102;15.440;2023-03-01T07:33:17;97891.31;;;1.45;100.00
3668;BME280;24099;47.102;15.440;2023-03-01T07:35:47;97894.03;;;1.43;100.00
3668;BME280;24099;47.102;15.440;2023-03-01T07:38:15;97894.63;;;1.47;100.00
3668;BME280;24099;47.102;15.440;2023-03-01T07:40:44;97890.91;;;1.51;100.00
3668;BME280;24099;47.102;15.440;2023-03-01T07:43:16;97883.00;;;1.52;100.00
3668;BME280;24099;47.102;15.440;2023-03-01T07:45:44;97881.75;;;1.58;100.00
3668;BME280;24099;47.102;15.440;2023-03-01T07:48:12;97874.28;;;1.53;100.00
3668;BME280;24099;47.102;15.440;2023-03-01T07:50:42;97879.28;;;1.56;100.00
3668;BME280;24099;47.102;15.440;2023-03-01T07:53:22;97878.22;;;1.59;100.00
3668;BME280;24099;47.102;15.440;2023-03-01T07:55:59;97887.66;;;1.60;100.00
3668;BME280;24099;47.102;15.440;2023-03-01T07:58:29;97893.78;;;1.59;100.00
3668;BME280;24099;47.102;15.440;2023-03-01T08:01:01;97888.59;;;1.59;100.00
3668;BME280;24099;47.102;15.440;2023-03-01T08:06:22;97895.91;;;1.78;100.00
3668;BME280;24099;47.102;15.440;2023-03-01T08:08:51;97897.22;;;1.83;100.00
3668;BME280;24099;47.102;15.440;2023-03-01T08:11:21;97889.22;;;1.86;100.00
3668;BME280;24099;47.102;15.440;2023-03-01T08:14:09;97894.19;;;1.89;100.00
3668;BME280;24099;47.102;15.440;2023-03-01T08:16:37;97890.75;;;1.89;100.00
3668;BME280;24099;47.102;15.440;2023-03-01T08:19:11;97896.16;;;1.86;100.00
3668;BME280;24099;47.102;15.440;2023-03-01T08:21:39;97876.19;;;1.75;100.00
3668;BME280;24099;47.102;15.440;2023-03-01T08:24:09;97889.75;;;2.02;100.00
3668;BME280;24099;47.102;15.440;2023-03-01T08:26:40;97890.81;;;2.00;100.00
3668;BME280;24099;47.102;15.440;2023-03-01T08:29:12;97890.38;;;2.06;100.00
3668;BME280;24099;47.102;15.440;2023-03-01T08:31:40;97882.88;;;2.14;100.00
3668;BME280;24099;47.102;15.440;2023-03-01T08:34:13;97891.28;;;2.18;100.00
3668;BME280;24099;47.102;15.440;2023-03-01T08:37:12;97880.41;;;2.24;100.00
3668;BME280;24099;47.102;15.440;2023-03-01T08:39:45;97877.47;;;2.28;100.00
3668;BME280;24099;47.102;15.440;2023-03-01T08:42:13;97873.44;;;2.24;100.00
3668;BME280;24099;47.102;15.440;2023-03-01T08:44:42;97868.41;;;2.34;100.00
3668;BME280;24099;47.102;15.440;2023-03-01T08:47:12;97860.41;;;2.37;100.00
3668;BME280;24099;47.102;15.440;2023-03-01T08:49:42;97868.09;;;2.38;100.00
3668;BME280;24099;47.102;15.440;2023-03-01T08:52:11;97861.13;;;2.39;100.00
3668;BME280;24099;47.102;15.440;2023-03-01T08:54:39;97857.44;;;2.41;100.00
3668;BME280;24099;47.102;15.440;2023-03-01T08:57:14;97851.84;;;2.70;100.00
3668;BME280;24099;47.102;15.440;2023-03-01T08:59:48;97853.75;;;2.79;100.00
3668;BME280;24099;47.102;15.440;2023-03-01T09:02:18;97854.78;;;2.54;100.00
3668;BME280;24099;47.102;15.440;2023-03-01T09:04:46;97848.00;;;2.40;100.00
3668;BME280;24099;47.102;15.440;2023-03-01T09:07:16;97853.19;;;2.40;100.00
3668;BME280;24099;47.102;15.440;2023-03-01T09:09:50;97839.69;;;2.59;100.00
3668;BME280;24099;47.102;15.440;2023-03-01T09:12:20;97833.75;;;2.57;100.00
3668;BME280;24099;47.102;15.440;2023-03-01T09:15:03;97835.81;;;2.30;100.00
3668;BME280;24099;47.102;15.440;2023-03-01T09:17:31;97833.34;;;2.28;100.00
3668;BME280;24099;47.102;15.440;2023-03-01T09:19:59;97834.19;;;2.40;100.00
3668;BME280;24099;47.102;15.440;2023-03-01T09:22:32;97827.47;;;2.49;100.00
3668;BME280;24099;47.102;15.440;2023-03-01T09:25:03;97829.03;;;2.51;100.00
3668;BME280;24099;47.102;15.440;2023-03-01T09:27:32;97822.38;;;2.36;100.00
3668;BME280;24099;47.102;15.440;2023-03-01T09:30:09;97818.75;;;2.50;100.00
3668;BME280;24099;47.102;15.440;2023-03-01T09:32:40;97820.25;;;2.41;100.00
3668;BME280;24099;47.102;15.440;2023-03-01T09:35:14;97814.97;;;2.54;100.00
3668;BME280;24099;47.102;15.440;2023-03-01T09:37:42;97809.88;;;2.63;100.00
3668;BME280;24099;47.102;15.440;2023-03-01T09:40:25;97806.00;;;2.69;100.00
3668;BME280;24099;47.102;15.440;2023-03-01T09:42:59;97802.13;;;2.74;100.00
3668;BME280;24099;47.102;15.440;2023-03-01T09:45:41;97799.75;;;2.83;100.00
3668;BME280;24099;47.102;15.440;2023-03-01T09:48:16;97802.94;;;2.75;100.00
3668;BME280;24099;47.102;15.440;2023-03-01T09:50:45;97799.28;;;2.78;100.00
3668;BME280;24099;47.102;15.440;2023-03-01T09:53:17;97793.25;;;2.66;100.00
3668;BME280;24099;47.102;15.440;2023-03-01T09:55:48;97789.47;;;2.92;100.00
3668;BME280;24099;47.102;15.440;2023-03-01T09:58:35;97790.78;;;2.87;100.00
3668;BME280;24099;47.102;15.440;2023-03-01T10:01:23;97793.38;;;2.75;100.00
3668;BME280;24099;47.102;15.440;2023-03-01T10:04:09;97792.41;;;2.65;100.00
3668;BME280;24099;47.102;15.440;2023-03-01T10:06:44;97789.84;;;2.76;100.00
3668;BME280;24099;47.102;15.440;2023-03-01T10:09:17;97787.34;;;2.75;100.00
3668;BME280;24099;47.102;15.440;2023-03-01T10:11:48;97786.41;;;2.76;100.00
3668;BME280;24099;47.102;15.440;2023-03-01T10:14:33;97789.72;;;2.89;100.00
3668;BME280;24099;47.102;15.440;2023-03-01T10:17:17;97787.00;;;2.91;100.00
3668;BME280;24099;47.102;15.440;2023-03-01T10:19:47;97789.25;;;2.73;100.00
3668;BME280;24099;47.102;15.440;2023-03-01T10:22:19;97783.19;;;2.84;100.00
3668;BME280;24099;47.102;15.440;2023-03-01T10:24:48;97785.75;;;3.28;100.00
3668;BME280;24099;47.102;15.440;2023-03-01T10:27:23;97785.03;;;3.37;100.00
3668;BME280;24099;47.102;15.440;2023-03-01T10:29:58;97787.75;;;3.36;100.00
3668;BME280;24099;47.102;15.440;2023-03-01T10:32:35;97787.75;;;3.36;100.00
3668;BME280;24099;47.102;15.440;2023-03-01T10:35:16;97793.31;;;3.31;100.00
3668;BME280;24099;47.102;15.440;2023-03-01T10:37:59;97804.56;;;3.21;100.00
3668;BME280;24099;47.102;15.440;2023-03-01T10:40:29;97816.06;;;2.96;100.00
3668;BME280;24099;47.102;15.440;2023-03-01T10:42:59;97823.38;;;2.91;100.00
3668;BME280;24099;47.102;15.440;2023-03-01T10:45:33;97829.06;;;3.07;100.00
3668;BME280;24099;47.102;15.440;2023-03-01T10:48:23;97828.78;;;3.21;100.00
3668;BME280;24099;47.102;15.440;2023-03-01T10:51:06;97835.78;;;3.21;100.00
3668;BME280;24099;47.102;15.440;2023-03-01T10:53:36;97841.81;;;3.32;100.00
3668;BME280;24099;47.102;15.440;2023-03-01T10:56:07;97839.44;;;3.29;100.00
3668;BME280;24099;47.102;15.440;2023-03-01T10:58:57;97839.34;;;3.20;100.00
3668;BME280;24099;47.102;15.440;2023-03-01T11:01:29;97819.47;;;3.07;100.00
3668;BME280;24099;47.102;15.440;2023-03-01T11:04:11;97841.59;;;2.91;100.00
3668;BME280;24099;47.102;15.440;2023-03-01T11:06:42;97835.75;;;2.65;100.00
3668;BME280;24099;47.102;15.440;2023-03-01T11:09:17;97831.31;;;2.89;100.00
3668;BME280;24099;47.102;15.440;2023-03-01T11:11:45;97825.63;;;2.95;100.00
3668;BME280;24099;47.102;15.440;2023-03-01T11:14:18;97824.44;;;2.77;100.00
3668;BME280;24099;47.102;15.440;2023-03-01T11:17:00;97823.25;;;2.81;100.00
3668;BME280;24099;47.102;15.440;2023-03-01T11:19:30;97820.06;;;2.89;100.00
3668;BME280;24099;47.102;15.440;2023-03-01T11:22:02;97829.78;;;2.98;100.00
3668;BME280;24099;47.102;15.440;2023-03-01T11:24:38;97821.63;;;2.91;100.00
3668;BME280;24099;47.102;15.440;2023-03-01T11:27:18;97820.78;;;2.80;100.00
3668;BME280;24099;47.102;15.440;2023-03-01T11:29:50;97814.63;;;3.14;100.00
3668;BME280;24099;47.102;15.440;2023-03-01T11:32:22;97817.94;;;3.16;100.00
3668;BME280;24099;47.102;15.440;2023-03-01T11:34:56;97806.47;;;3.07;100.00
3668;BME280;24099;47.102;15.440;2023-03-01T11:37:34;97802.34;;;3.16;100.00
3668;BME280;24099;47.102;15.440;2023-03-01T11:40:13;97796.69;;;2.78;100.00
3668;BME280;24099;47.102;15.440;2023-03-01T11:43:09;97779.06;;;2.81;100.00
3668;BME280;24099;47.102;15.440;2023-03-01T11:49:47;97772.34;;;2.90;100.00
3668;BME280;24099;47.102;15.440;2023-03-01T11:52:35;97772.53;;;3.20;100.00
3668;BME280;24099;47.102;15.440;2023-03-01T11:55:26;97772.50;;;3.31;100.00
3668;BME280;24099;47.102;15.440;2023-03-01T11:58:14;97774.88;;;3.34;100.00
3668;BME280;24099;47.102;15.440;2023-03-01T12:01:01;97761.03;;;3.34;100.00
3668;BME280;24099;47.102;15.440;2023-03-01T12:03:38;97761.22;;;3.53;100.00
3668;BME280;24099;47.102;15.440;2023-03-01T12:06:33;97755.53;;;3.80;100.00
3668;BME280;24099;47.102;15.440;2023-03-01T12:09:25;97745.94;;;3.80;100.00
3668;BME280;24099;47.102;15.440;2023-03-01T12:12:17;97734.66;;;3.91;100.00
3668;BME280;24099;47.102;15.440;2023-03-01T12:15:02;97729.91;;;3.96;100.00
3668;BME280;24099;47.102;15.440;2023-03-01T12:17:52;97729.22;;;3.94;100.00
3668;BME280;24099;47.102;15.440;2023-03-01T12:20:30;97717.41;;;3.90;100.00
3668;BME280;24099;47.102;15.440;2023-03-01T12:23:23;97707.19;;;3.98;100.00
3668;BME280;24099;47.102;15.440;2023-03-01T12:26:01;97695.22;;;4.17;100.00
3668;BME280;24099;47.102;15.440;2023-03-01T12:28:49;97690.38;;;4.33;100.00
3668;BME280;24099;47.102;15.440;2023-03-01T12:31:35;97686.31;;;4.49;100.00
3668;BME280;24099;47.102;15.440;2023-03-01T12:34:24;97690.09;;;4.36;100.00
3668;BME280;24099;47.102;15.440;2023-03-01T12:37:21;97680.63;;;4.35;100.00
3668;BME280;24099;47.102;15.440;2023-03-01T12:40:03;97676.16;;;4.46;100.00
3668;BME280;24099;47.102;15.440;2023-03-01T12:42:48;97664.19;;;4.44;100.00
3668;BME280;24099;47.102;15.440;2023-03-01T12:45:47;97662.09;;;4.59;100.00
3668;BME280;24099;47.102;15.440;2023-03-01T12:48:24;97660.81;;;4.53;100.00
3668;BME280;24099;47.102;15.440;2023-03-01T12:51:01;97655.91;;;4.69;100.00
3668;BME280;24099;47.102;15.440;2023-03-01T12:53:40;97652.97;;;4.93;100.00
3668;BME280;24099;47.102;15.440;2023-03-01T12:56:10;97639.22;;;4.91;100.00
3668;BME280;24099;47.102;15.440;2023-03-01T12:58:49;97635.53;;;5.13;100.00
3668;BME280;24099;47.102;15.440;2023-03-01T13:01:31;97626.91;;;5.12;100.00
3668;BME280;24099;47.102;15.440;2023-03-01T13:04:20;97628.53;;;5.04;100.00
3668;BME280;24099;47.102;15.440;2023-03-01T13:07:13;97617.16;;;5.14;100.00
3668;BME280;24099;47.102;15.440;2023-03-01T13:09:51;97610.28;;;5.13;100.00
3668;BME280;24099;47.102;15.440;2023-03-01T13:12:51;97616.19;;;4.96;100.00
3668;BME280;24099;47.102;15.440;2023-03-01T13:15:32;97596.53;;;5.02;100.00
3668;BME280;24099;47.102;15.440;2023-03-01T13:18:02;97588.31;;;5.35;100.00
3668;BME280;24099;47.102;15.440;2023-03-01T13:20:33;97589.13;;;5.26;100.00
3668;BME280;24099;47.102;15.440;2023-03-01T13:23:12;97588.44;;;5.14;100.00
3668;BME280;24099;47.102;15.440;2023-03-01T13:26:01;97589.28;;;5.15;100.00
3668;BME280;24099;47.102;15.440;2023-03-01T13:28:50;97577.19;;;5.33;100.00
3668;BME280;24099;47.102;15.440;2023-03-01T13:34:51;97586.53;;;5.36;100.00
3668;BME280;24099;47.102;15.440;2023-03-01T13:37:21;97582.97;;;5.17;100.00
3668;BME280;24099;47.102;15.440;2023-03-01T13:39:53;97587.88;;;5.49;100.00
3668;BME280;24099;47.102;15.440;2023-03-01T13:42:42;97579.75;;;5.52;100.00
3668;BME280;24099;47.102;15.440;2023-03-01T13:45:21;97569.88;;;5.56;100.00